Terminal Aerodrome Forecast
Issued by NWS

Current Version | Previous Version | Graphics & Text | Print | Product List | Glossary On
Versions: 1 2 3 4 5 6 7 8 9 10 11 12 13 14 15 16 17 18 19 20 21 22 23 24 25 26 27 28 29 30 31 32
000
FTUS41 KPBZ 231733
TAFHLG
TAF
KHLG 231733Z 2318/2418 23004KT P6SM VCTS SCT015CB BKN035
     FM240100 25005KT P6SM -SHRA VCTS BKN035CB
     FM240700 28004KT 4SM BR SCT015
     FM240900 27004KT 4SM BR BKN008
     FM241400 28010KT P6SM BKN035=

USA.gov is the U.S. government's official web portal to all federal, state and local government web resources and services.